Jacksonville, Maryland
Current Conditions -  °F | °C
As of 6:55 PM on Sunday 25 Jan 2015 (Local Time) from KMTN Reporting Station
Broken Clouds Broken Clouds  
Wind Chill: 43°   Ceiling: 1300
Heat Index: 43°   Visibility: 10mi
Dew Point: 37°   Wind: 0mph
Humidity: 81%   Direction: NA
Pressure: 29.9"   Gusts: NA
Location:  39.5027°N, 76.5721°W
Report Text: KMTN 252355Z 00000KT 10SM SCT010 BKN013 06/03 A2990
Loading
Personal Weather Stations






























Interactive Weather Map New forecast layout! Learn more

10-Day Weather Forecast

Advertisements
Track Severe Weather on mobile